sensor_id;sensor_type;location;lat;lon;timestamp;P1;durP1;ratioP1;P2;durP2;ratioP2
80320;SDS011;69633;47.066;15.450;2023-09-07T00:00:26;9.88;;;4.35;;
80320;SDS011;69633;47.066;15.450;2023-09-07T00:02:53;8.52;;;4.57;;
80320;SDS011;69633;47.066;15.450;2023-09-07T00:05:21;7.55;;;4.88;;
80320;SDS011;69633;47.066;15.450;2023-09-07T00:07:47;7.45;;;4.38;;
80320;SDS011;69633;47.066;15.450;2023-09-07T00:10:14;11.07;;;4.63;;
80320;SDS011;69633;47.066;15.450;2023-09-07T00:12:41;6.35;;;4.45;;
80320;SDS011;69633;47.066;15.450;2023-09-07T00:15:06;8.73;;;4.70;;
80320;SDS011;69633;47.066;15.450;2023-09-07T00:17:36;7.15;;;4.50;;
80320;SDS011;69633;47.066;15.450;2023-09-07T00:20:03;6.85;;;4.45;;
80320;SDS011;69633;47.066;15.450;2023-09-07T00:22:37;9.85;;;4.53;;
80320;SDS011;69633;47.066;15.450;2023-09-07T00:25:04;7.60;;;4.25;;
80320;SDS011;69633;47.066;15.450;2023-09-07T00:27:33;6.90;;;4.78;;
80320;SDS011;69633;47.066;15.450;2023-09-07T00:30:01;7.93;;;4.60;;
80320;SDS011;69633;47.066;15.450;2023-09-07T00:32:35;10.55;;;4.53;;
80320;SDS011;69633;47.066;15.450;2023-09-07T00:35:03;9.25;;;4.75;;
80320;SDS011;69633;47.066;15.450;2023-09-07T00:40:00;6.45;;;4.15;;
80320;SDS011;69633;47.066;15.450;2023-09-07T00:42:30;7.00;;;4.10;;
80320;SDS011;69633;47.066;15.450;2023-09-07T00:44:56;6.88;;;4.25;;
80320;SDS011;69633;47.066;15.450;2023-09-07T00:47:22;7.05;;;4.40;;
80320;SDS011;69633;47.066;15.450;2023-09-07T00:49:48;7.22;;;4.60;;
80320;SDS011;69633;47.066;15.450;2023-09-07T00:52:15;8.55;;;4.40;;
80320;SDS011;69633;47.066;15.450;2023-09-07T00:54:44;6.38;;;4.53;;
80320;SDS011;69633;47.066;15.450;2023-09-07T00:57:11;7.10;;;4.47;;
80320;SDS011;69633;47.066;15.450;2023-09-07T00:59:37;6.82;;;4.28;;
80320;SDS011;69633;47.066;15.450;2023-09-07T01:02:04;7.07;;;3.88;;
80320;SDS011;69633;47.066;15.450;2023-09-07T01:04:31;9.93;;;4.80;;
80320;SDS011;69633;47.066;15.450;2023-09-07T01:07:02;9.02;;;4.68;;
80320;SDS011;69633;47.066;15.450;2023-09-07T01:09:56;6.15;;;4.00;;
80320;SDS011;69633;47.066;15.450;2023-09-07T01:12:23;7.07;;;4.43;;
80320;SDS011;69633;47.066;15.450;2023-09-07T01:14:53;7.75;;;4.60;;
80320;SDS011;69633;47.066;15.450;2023-09-07T01:17:20;6.45;;;4.22;;
80320;SDS011;69633;47.066;15.450;2023-09-07T01:19:48;6.85;;;4.68;;
80320;SDS011;69633;47.066;15.450;2023-09-07T01:22:18;7.28;;;4.47;;
80320;SDS011;69633;47.066;15.450;2023-09-07T01:24:46;7.20;;;4.68;;
80320;SDS011;69633;47.066;15.450;2023-09-07T01:27:15;11.88;;;5.10;;
80320;SDS011;69633;47.066;15.450;2023-09-07T01:29:42;7.60;;;4.38;;
80320;SDS011;69633;47.066;15.450;2023-09-07T01:32:09;7.88;;;4.47;;
80320;SDS011;69633;47.066;15.450;2023-09-07T01:34:40;6.70;;;4.30;;
80320;SDS011;69633;47.066;15.450;2023-09-07T01:37:06;6.90;;;4.55;;
80320;SDS011;69633;47.066;15.450;2023-09-07T01:39:33;6.47;;;4.32;;
80320;SDS011;69633;47.066;15.450;2023-09-07T01:41:59;7.68;;;4.25;;
80320;SDS011;69633;47.066;15.450;2023-09-07T01:44:26;6.45;;;4.32;;
80320;SDS011;69633;47.066;15.450;2023-09-07T01:46:53;6.47;;;4.68;;
80320;SDS011;69633;47.066;15.450;2023-09-07T01:49:20;7.82;;;4.63;;
80320;SDS011;69633;47.066;15.450;2023-09-07T01:51:46;7.18;;;4.15;;
80320;SDS011;69633;47.066;15.450;2023-09-07T01:54:13;11.65;;;5.10;;
80320;SDS011;69633;47.066;15.450;2023-09-07T01:56:40;6.75;;;4.60;;
80320;SDS011;69633;47.066;15.450;2023-09-07T01:59:08;7.93;;;4.35;;
80320;SDS011;69633;47.066;15.450;2023-09-07T02:01:34;6.80;;;4.45;;
80320;SDS011;69633;47.066;15.450;2023-09-07T02:04:03;6.22;;;4.32;;
80320;SDS011;69633;47.066;15.450;2023-09-07T02:06:30;7.95;;;4.22;;
80320;SDS011;69633;47.066;15.450;2023-09-07T02:08:56;7.25;;;4.13;;
80320;SDS011;69633;47.066;15.450;2023-09-07T02:11:23;7.93;;;4.93;;
80320;SDS011;69633;47.066;15.450;2023-09-07T02:13:50;7.60;;;4.35;;
80320;SDS011;69633;47.066;15.450;2023-09-07T02:16:16;8.70;;;4.75;;
80320;SDS011;69633;47.066;15.450;2023-09-07T02:18:44;5.93;;;4.22;;
80320;SDS011;69633;47.066;15.450;2023-09-07T02:21:11;7.40;;;4.75;;
80320;SDS011;69633;47.066;15.450;2023-09-07T02:23:39;6.53;;;4.35;;
80320;SDS011;69633;47.066;15.450;2023-09-07T02:26:05;6.28;;;4.07;;
80320;SDS011;69633;47.066;15.450;2023-09-07T02:28:32;7.70;;;4.75;;
80320;SDS011;69633;47.066;15.450;2023-09-07T02:31:03;6.72;;;4.30;;
80320;SDS011;69633;47.066;15.450;2023-09-07T02:33:31;6.95;;;4.28;;
80320;SDS011;69633;47.066;15.450;2023-09-07T02:35:58;7.75;;;4.70;;
80320;SDS011;69633;47.066;15.450;2023-09-07T02:38:25;7.35;;;4.28;;
80320;SDS011;69633;47.066;15.450;2023-09-07T02:40:52;8.23;;;4.75;;
80320;SDS011;69633;47.066;15.450;2023-09-07T02:43:19;7.97;;;5.03;;
80320;SDS011;69633;47.066;15.450;2023-09-07T02:45:48;7.97;;;5.03;;
80320;SDS011;69633;47.066;15.450;2023-09-07T02:48:16;8.10;;;5.03;;
80320;SDS011;69633;47.066;15.450;2023-09-07T02:50:42;8.55;;;4.75;;
80320;SDS011;69633;47.066;15.450;2023-09-07T02:53:12;7.55;;;4.50;;
80320;SDS011;69633;47.066;15.450;2023-09-07T02:55:39;7.60;;;4.47;;
80320;SDS011;69633;47.066;15.450;2023-09-07T02:58:06;6.57;;;4.85;;
80320;SDS011;69633;47.066;15.450;2023-09-07T03:00:33;8.25;;;5.28;;
80320;SDS011;69633;47.066;15.450;2023-09-07T03:03:01;10.48;;;4.90;;
80320;SDS011;69633;47.066;15.450;2023-09-07T03:05:30;8.65;;;5.10;;
80320;SDS011;69633;47.066;15.450;2023-09-07T03:07:56;9.90;;;4.43;;
80320;SDS011;69633;47.066;15.450;2023-09-07T03:10:23;10.02;;;4.97;;
80320;SDS011;69633;47.066;15.450;2023-09-07T03:12:49;8.88;;;5.13;;
80320;SDS011;69633;47.066;15.450;2023-09-07T03:15:16;8.20;;;4.65;;
80320;SDS011;69633;47.066;15.450;2023-09-07T03:17:42;9.43;;;5.28;;
80320;SDS011;69633;47.066;15.450;2023-09-07T03:20:09;9.43;;;4.47;;
80320;SDS011;69633;47.066;15.450;2023-09-07T03:22:43;9.65;;;4.88;;
80320;SDS011;69633;47.066;15.450;2023-09-07T03:25:11;7.32;;;4.65;;
80320;SDS011;69633;47.066;15.450;2023-09-07T03:27:38;9.27;;;5.10;;
80320;SDS011;69633;47.066;15.450;2023-09-07T03:30:05;12.05;;;5.55;;
80320;SDS011;69633;47.066;15.450;2023-09-07T03:32:34;8.88;;;5.25;;
80320;SDS011;69633;47.066;15.450;2023-09-07T03:35:00;8.20;;;5.20;;
80320;SDS011;69633;47.066;15.450;2023-09-07T03:37:29;10.55;;;4.90;;
80320;SDS011;69633;47.066;15.450;2023-09-07T03:39:59;11.63;;;5.40;;
80320;SDS011;69633;47.066;15.450;2023-09-07T03:42:25;8.02;;;4.90;;
80320;SDS011;69633;47.066;15.450;2023-09-07T03:44:52;9.82;;;5.65;;
80320;SDS011;69633;47.066;15.450;2023-09-07T03:47:18;10.25;;;5.45;;
80320;SDS011;69633;47.066;15.450;2023-09-07T03:49:44;9.13;;;5.75;;
80320;SDS011;69633;47.066;15.450;2023-09-07T03:52:10;7.35;;;4.95;;
80320;SDS011;69633;47.066;15.450;2023-09-07T03:54:37;9.23;;;5.45;;
80320;SDS011;69633;47.066;15.450;2023-09-07T03:57:05;11.20;;;5.70;;
80320;SDS011;69633;47.066;15.450;2023-09-07T03:59:30;8.38;;;4.80;;
80320;SDS011;69633;47.066;15.450;2023-09-07T04:01:57;7.63;;;5.15;;
80320;SDS011;69633;47.066;15.450;2023-09-07T04:04:25;9.40;;;5.10;;
80320;SDS011;69633;47.066;15.450;2023-09-07T04:06:52;8.20;;;4.72;;
80320;SDS011;69633;47.066;15.450;2023-09-07T04:09:17;7.75;;;5.15;;
80320;SDS011;69633;47.066;15.450;2023-09-07T04:11:43;8.82;;;5.38;;
80320;SDS011;69633;47.066;15.450;2023-09-07T04:14:09;7.90;;;5.07;;
80320;SDS011;69633;47.066;15.450;2023-09-07T04:16:36;7.40;;;4.93;;
80320;SDS011;69633;47.066;15.450;2023-09-07T04:19:03;8.23;;;4.85;;
80320;SDS011;69633;47.066;15.450;2023-09-07T04:21:30;8.35;;;4.35;;
80320;SDS011;69633;47.066;15.450;2023-09-07T04:23:56;9.95;;;4.97;;
80320;SDS011;69633;47.066;15.450;2023-09-07T04:26:22;9.52;;;4.80;;
80320;SDS011;69633;47.066;15.450;2023-09-07T04:28:53;10.43;;;5.18;;
80320;SDS011;69633;47.066;15.450;2023-09-07T04:31:19;9.75;;;4.63;;
80320;SDS011;69633;47.066;15.450;2023-09-07T04:33:46;11.23;;;5.20;;
80320;SDS011;69633;47.066;15.450;2023-09-07T04:36:13;9.13;;;4.90;;
80320;SDS011;69633;47.066;15.450;2023-09-07T04:38:40;11.25;;;5.07;;
80320;SDS011;69633;47.066;15.450;2023-09-07T04:41:11;9.25;;;5.28;;
80320;SDS011;69633;47.066;15.450;2023-09-07T04:43:42;9.55;;;4.88;;
80320;SDS011;69633;47.066;15.450;2023-09-07T04:46:10;8.85;;;4.82;;
80320;SDS011;69633;47.066;15.450;2023-09-07T04:48:37;10.20;;;5.85;;
80320;SDS011;69633;47.066;15.450;2023-09-07T04:51:05;7.20;;;4.47;;
80320;SDS011;69633;47.066;15.450;2023-09-07T04:53:33;9.45;;;5.53;;
80320;SDS011;69633;47.066;15.450;2023-09-07T04:56:01;9.43;;;4.82;;
80320;SDS011;69633;47.066;15.450;2023-09-07T04:58:34;7.75;;;5.03;;
80320;SDS011;69633;47.066;15.450;2023-09-07T05:03:45;9.00;;;4.72;;
80320;SDS011;69633;47.066;15.450;2023-09-07T05:06:12;8.00;;;4.65;;
80320;SDS011;69633;47.066;15.450;2023-09-07T05:08:41;8.43;;;4.57;;
80320;SDS011;69633;47.066;15.450;2023-09-07T05:11:07;10.10;;;4.03;;
80320;SDS011;69633;47.066;15.450;2023-09-07T05:13:33;7.10;;;4.70;;
80320;SDS011;69633;47.066;15.450;2023-09-07T05:15:58;9.10;;;4.72;;
80320;SDS011;69633;47.066;15.450;2023-09-07T05:18:26;9.57;;;4.72;;
80320;SDS011;69633;47.066;15.450;2023-09-07T05:20:52;6.90;;;4.50;;
80320;SDS011;69633;47.066;15.450;2023-09-07T05:23:19;9.75;;;5.03;;
80320;SDS011;69633;47.066;15.450;2023-09-07T05:25:46;8.43;;;5.18;;
80320;SDS011;69633;47.066;15.450;2023-09-07T05:28:19;9.85;;;5.90;;
80320;SDS011;69633;47.066;15.450;2023-09-07T05:30:51;11.98;;;5.47;;
80320;SDS011;69633;47.066;15.450;2023-09-07T05:33:18;8.02;;;5.20;;
80320;SDS011;69633;47.066;15.450;2023-09-07T05:35:44;12.95;;;5.53;;
80320;SDS011;69633;47.066;15.450;2023-09-07T05:38:14;7.72;;;5.25;;
80320;SDS011;69633;47.066;15.450;2023-09-07T05:40:41;9.73;;;4.90;;
80320;SDS011;69633;47.066;15.450;2023-09-07T05:43:10;9.93;;;5.90;;
80320;SDS011;69633;47.066;15.450;2023-09-07T05:45:40;11.90;;;5.57;;
80320;SDS011;69633;47.066;15.450;2023-09-07T05:48:08;10.38;;;5.10;;
80320;SDS011;69633;47.066;15.450;2023-09-07T05:50:35;10.15;;;5.38;;
80320;SDS011;69633;47.066;15.450;2023-09-07T05:53:05;9.57;;;4.85;;
80320;SDS011;69633;47.066;15.450;2023-09-07T05:55:32;10.00;;;5.40;;
80320;SDS011;69633;47.066;15.450;2023-09-07T05:57:59;8.70;;;4.97;;
80320;SDS011;69633;47.066;15.450;2023-09-07T06:00:26;13.48;;;5.40;;
80320;SDS011;69633;47.066;15.450;2023-09-07T06:02:52;9.20;;;5.28;;
80320;SDS011;69633;47.066;15.450;2023-09-07T06:05:20;8.43;;;5.18;;
80320;SDS011;69633;47.066;15.450;2023-09-07T06:07:46;8.70;;;5.22;;
80320;SDS011;69633;47.066;15.450;2023-09-07T06:10:13;10.85;;;4.68;;
80320;SDS011;69633;47.066;15.450;2023-09-07T06:12:41;8.85;;;4.97;;
80320;SDS011;69633;47.066;15.450;2023-09-07T06:15:07;7.97;;;5.40;;
80320;SDS011;69633;47.066;15.450;2023-09-07T06:17:34;9.90;;;5.60;;
80320;SDS011;69633;47.066;15.450;2023-09-07T06:20:02;9.98;;;5.25;;
80320;SDS011;69633;47.066;15.450;2023-09-07T06:22:28;14.40;;;5.50;;
80320;SDS011;69633;47.066;15.450;2023-09-07T06:24:54;12.90;;;5.38;;
80320;SDS011;69633;47.066;15.450;2023-09-07T06:27:21;8.55;;;4.55;;
80320;SDS011;69633;47.066;15.450;2023-09-07T06:29:48;8.98;;;5.35;;
80320;SDS011;69633;47.066;15.450;2023-09-07T06:32:15;9.02;;;4.80;;
80320;SDS011;69633;47.066;15.450;2023-09-07T06:34:40;11.68;;;5.57;;
80320;SDS011;69633;47.066;15.450;2023-09-07T06:37:07;8.65;;;4.70;;
80320;SDS011;69633;47.066;15.450;2023-09-07T06:39:35;11.27;;;5.78;;
80320;SDS011;69633;47.066;15.450;2023-09-07T06:42:02;8.60;;;4.80;;
80320;SDS011;69633;47.066;15.450;2023-09-07T06:44:30;8.75;;;4.35;;
80320;SDS011;69633;47.066;15.450;2023-09-07T06:46:56;8.88;;;5.03;;
80320;SDS011;69633;47.066;15.450;2023-09-07T06:49:23;8.45;;;4.80;;
80320;SDS011;69633;47.066;15.450;2023-09-07T06:51:52;10.05;;;4.80;;
80320;SDS011;69633;47.066;15.450;2023-09-07T06:54:19;8.38;;;5.03;;
80320;SDS011;69633;47.066;15.450;2023-09-07T06:56:46;7.20;;;4.60;;
80320;SDS011;69633;47.066;15.450;2023-09-07T06:59:11;10.13;;;4.38;;
80320;SDS011;69633;47.066;15.450;2023-09-07T07:01:37;10.05;;;4.63;;
80320;SDS011;69633;47.066;15.450;2023-09-07T07:04:04;11.75;;;5.03;;
80320;SDS011;69633;47.066;15.450;2023-09-07T07:06:30;10.93;;;4.90;;
80320;SDS011;69633;47.066;15.450;2023-09-07T07:08:57;6.90;;;4.40;;
80320;SDS011;69633;47.066;15.450;2023-09-07T07:11:24;6.93;;;4.35;;
80320;SDS011;69633;47.066;15.450;2023-09-07T07:13:49;9.27;;;4.53;;
80320;SDS011;69633;47.066;15.450;2023-09-07T07:16:16;9.80;;;5.40;;
80320;SDS011;69633;47.066;15.450;2023-09-07T07:18:43;9.23;;;4.85;;
80320;SDS011;69633;47.066;15.450;2023-09-07T07:21:10;8.20;;;4.82;;
80320;SDS011;69633;47.066;15.450;2023-09-07T07:23:35;7.82;;;5.28;;
80320;SDS011;69633;47.066;15.450;2023-09-07T07:26:02;8.38;;;4.55;;
80320;SDS011;69633;47.066;15.450;2023-09-07T07:28:29;8.75;;;4.70;;
80320;SDS011;69633;47.066;15.450;2023-09-07T07:30:55;6.95;;;4.68;;
80320;SDS011;69633;47.066;15.450;2023-09-07T07:33:22;8.30;;;4.45;;
80320;SDS011;69633;47.066;15.450;2023-09-07T07:35:53;7.65;;;4.93;;
80320;SDS011;69633;47.066;15.450;2023-09-07T07:38:20;7.78;;;4.82;;
80320;SDS011;69633;47.066;15.450;2023-09-07T07:40:48;8.00;;;4.75;;
80320;SDS011;69633;47.066;15.450;2023-09-07T07:43:15;6.93;;;4.55;;
80320;SDS011;69633;47.066;15.450;2023-09-07T07:45:42;7.65;;;4.47;;
80320;SDS011;69633;47.066;15.450;2023-09-07T07:48:08;8.77;;;3.67;;
80320;SDS011;69633;47.066;15.450;2023-09-07T07:50:41;8.18;;;4.30;;
80320;SDS011;69633;47.066;15.450;2023-09-07T07:53:08;8.60;;;5.05;;
80320;SDS011;69633;47.066;15.450;2023-09-07T07:55:38;7.57;;;4.85;;
80320;SDS011;69633;47.066;15.450;2023-09-07T07:58:08;10.43;;;4.95;;
80320;SDS011;69633;47.066;15.450;2023-09-07T08:03:03;7.97;;;5.00;;
80320;SDS011;69633;47.066;15.450;2023-09-07T08:05:32;9.02;;;5.20;;
80320;SDS011;69633;47.066;15.450;2023-09-07T08:07:59;11.48;;;4.68;;
80320;SDS011;69633;47.066;15.450;2023-09-07T08:10:28;8.05;;;4.82;;
80320;SDS011;69633;47.066;15.450;2023-09-07T08:12:55;7.90;;;4.78;;
80320;SDS011;69633;47.066;15.450;2023-09-07T08:15:22;6.57;;;3.80;;
80320;SDS011;69633;47.066;15.450;2023-09-07T08:17:51;7.05;;;4.10;;
80320;SDS011;69633;47.066;15.450;2023-09-07T08:20:18;7.50;;;4.38;;
80320;SDS011;69633;47.066;15.450;2023-09-07T08:22:46;7.13;;;4.20;;
80320;SDS011;69633;47.066;15.450;2023-09-07T08:25:14;6.97;;;4.25;;
80320;SDS011;69633;47.066;15.450;2023-09-07T08:27:41;7.75;;;4.53;;
80320;SDS011;69633;47.066;15.450;2023-09-07T08:30:12;13.15;;;4.88;;
80320;SDS011;69633;47.066;15.450;2023-09-07T08:32:48;10.63;;;4.47;;
80320;SDS011;69633;47.066;15.450;2023-09-07T08:35:18;6.78;;;3.92;;
80320;SDS011;69633;47.066;15.450;2023-09-07T08:37:44;16.38;;;5.22;;
80320;SDS011;69633;47.066;15.450;2023-09-07T08:40:11;9.73;;;4.20;;
80320;SDS011;69633;47.066;15.450;2023-09-07T08:42:38;7.22;;;4.20;;
80320;SDS011;69633;47.066;15.450;2023-09-07T08:45:05;10.95;;;4.38;;
80320;SDS011;69633;47.066;15.450;2023-09-07T08:47:37;10.35;;;5.45;;
80320;SDS011;69633;47.066;15.450;2023-09-07T08:50:07;11.02;;;4.25;;
80320;SDS011;69633;47.066;15.450;2023-09-07T08:52:36;52.35;;;7.20;;
80320;SDS011;69633;47.066;15.450;2023-09-07T08:55:02;7.07;;;3.58;;
80320;SDS011;69633;47.066;15.450;2023-09-07T08:57:34;5.47;;;3.90;;
80320;SDS011;69633;47.066;15.450;2023-09-07T09:00:01;7.60;;;3.90;;
80320;SDS011;69633;47.066;15.450;2023-09-07T09:02:35;18.17;;;4.43;;
80320;SDS011;69633;47.066;15.450;2023-09-07T09:05:04;10.73;;;4.45;;
80320;SDS011;69633;47.066;15.450;2023-09-07T09:07:32;15.80;;;4.22;;
80320;SDS011;69633;47.066;15.450;2023-09-07T09:10:08;8.80;;;3.97;;
80320;SDS011;69633;47.066;15.450;2023-09-07T09:12:35;5.95;;;3.45;;
80320;SDS011;69633;47.066;15.450;2023-09-07T09:15:09;7.28;;;3.63;;
80320;SDS011;69633;47.066;15.450;2023-09-07T09:17:36;12.40;;;4.85;;
80320;SDS011;69633;47.066;15.450;2023-09-07T09:20:03;9.02;;;3.70;;
80320;SDS011;69633;47.066;15.450;2023-09-07T09:22:36;5.00;;;3.45;;
80320;SDS011;69633;47.066;15.450;2023-09-07T09:25:03;6.15;;;3.63;;
80320;SDS011;69633;47.066;15.450;2023-09-07T09:27:30;9.02;;;4.20;;
80320;SDS011;69633;47.066;15.450;2023-09-07T09:29:59;22.13;;;11.57;;
80320;SDS011;69633;47.066;15.450;2023-09-07T09:32:26;8.65;;;3.78;;
80320;SDS011;69633;47.066;15.450;2023-09-07T09:34:52;7.15;;;4.50;;
80320;SDS011;69633;47.066;15.450;2023-09-07T09:37:19;5.68;;;4.00;;
80320;SDS011;69633;47.066;15.450;2023-09-07T09:39:52;5.80;;;3.42;;
80320;SDS011;69633;47.066;15.450;2023-09-07T09:42:25;6.65;;;3.35;;
80320;SDS011;69633;47.066;15.450;2023-09-07T09:44:51;5.72;;;3.45;;
80320;SDS011;69633;47.066;15.450;2023-09-07T09:47:21;10.88;;;3.60;;
80320;SDS011;69633;47.066;15.450;2023-09-07T09:49:48;9.65;;;3.58;;
80320;SDS011;69633;47.066;15.450;2023-09-07T09:52:17;7.03;;;3.63;;
80320;SDS011;69633;47.066;15.450;2023-09-07T09:54:44;7.10;;;3.97;;
80320;SDS011;69633;47.066;15.450;2023-09-07T09:57:12;9.50;;;3.95;;
80320;SDS011;69633;47.066;15.450;2023-09-07T09:59:39;11.38;;;3.72;;
80320;SDS011;69633;47.066;15.450;2023-09-07T10:02:06;4.68;;;3.20;;
80320;SDS011;69633;47.066;15.450;2023-09-07T10:04:34;7.53;;;3.30;;
80320;SDS011;69633;47.066;15.450;2023-09-07T10:07:02;5.18;;;3.10;;
80320;SDS011;69633;47.066;15.450;2023-09-07T10:09:35;4.93;;;3.17;;
80320;SDS011;69633;47.066;15.450;2023-09-07T10:12:03;6.63;;;3.22;;
80320;SDS011;69633;47.066;15.450;2023-09-07T10:14:43;6.82;;;3.28;;
80320;SDS011;69633;47.066;15.450;2023-09-07T10:17:21;5.93;;;3.40;;
80320;SDS011;69633;47.066;15.450;2023-09-07T10:19:49;7.43;;;3.67;;
80320;SDS011;69633;47.066;15.450;2023-09-07T10:22:21;6.38;;;3.33;;
80320;SDS011;69633;47.066;15.450;2023-09-07T10:24:59;9.00;;;3.60;;
80320;SDS011;69633;47.066;15.450;2023-09-07T10:27:26;7.68;;;3.28;;
80320;SDS011;69633;47.066;15.450;2023-09-07T10:30:08;9.65;;;4.15;;
80320;SDS011;69633;47.066;15.450;2023-09-07T10:32:50;4.93;;;3.28;;
80320;SDS011;69633;47.066;15.450;2023-09-07T10:35:18;6.18;;;3.05;;
80320;SDS011;69633;47.066;15.450;2023-09-07T10:37:55;6.13;;;3.17;;
80320;SDS011;69633;47.066;15.450;2023-09-07T10:40:22;6.07;;;3.03;;
80320;SDS011;69633;47.066;15.450;2023-09-07T10:43:00;5.20;;;3.40;;
80320;SDS011;69633;47.066;15.450;2023-09-07T10:45:29;5.68;;;3.10;;
80320;SDS011;69633;47.066;15.450;2023-09-07T10:47:56;4.80;;;3.25;;
80320;SDS011;69633;47.066;15.450;2023-09-07T10:50:23;5.47;;;3.40;;
80320;SDS011;69633;47.066;15.450;2023-09-07T10:52:48;7.07;;;3.25;;
80320;SDS011;69633;47.066;15.450;2023-09-07T10:55:14;5.43;;;3.30;;
80320;SDS011;69633;47.066;15.450;2023-09-07T10:57:47;7.30;;;3.50;;
80320;SDS011;69633;47.066;15.450;2023-09-07T11:00:14;5.78;;;3.28;;
80320;SDS011;69633;47.066;15.450;2023-09-07T11:02:40;4.75;;;3.00;;
80320;SDS011;69633;47.066;15.450;2023-09-07T11:05:08;5.70;;;2.95;;
80320;SDS011;69633;47.066;15.450;2023-09-07T11:07:36;4.55;;;2.97;;
80320;SDS011;69633;47.066;15.450;2023-09-07T11:10:06;5.47;;;3.17;;
80320;SDS011;69633;47.066;15.450;2023-09-07T11:12:39;4.70;;;3.33;;
80320;SDS011;69633;47.066;15.450;2023-09-07T11:15:09;8.68;;;3.80;;
80320;SDS011;69633;47.066;15.450;2023-09-07T11:17:39;4.90;;;3.10;;
80320;SDS011;69633;47.066;15.450;2023-09-07T11:20:06;8.25;;;3.17;;
80320;SDS011;69633;47.066;15.450;2023-09-07T11:22:35;5.60;;;2.80;;
80320;SDS011;69633;47.066;15.450;2023-09-07T11:25:05;5.93;;;3.22;;
80320;SDS011;69633;47.066;15.450;2023-09-07T11:27:35;5.25;;;3.17;;
80320;SDS011;69633;47.066;15.450;2023-09-07T11:30:01;5.40;;;3.08;;
80320;SDS011;69633;47.066;15.450;2023-09-07T11:32:34;8.70;;;3.17;;
80320;SDS011;69633;47.066;15.450;2023-09-07T11:35:01;5.15;;;2.90;;
80320;SDS011;69633;47.066;15.450;2023-09-07T11:37:31;6.00;;;2.97;;
80320;SDS011;69633;47.066;15.450;2023-09-07T11:39:57;6.28;;;3.67;;
80320;SDS011;69633;47.066;15.450;2023-09-07T11:42:24;5.05;;;3.28;;
80320;SDS011;69633;47.066;15.450;2023-09-07T11:44:50;6.00;;;3.30;;
80320;SDS011;69633;47.066;15.450;2023-09-07T11:47:16;4.97;;;2.95;;
80320;SDS011;69633;47.066;15.450;2023-09-07T11:49:45;4.80;;;2.92;;
80320;SDS011;69633;47.066;15.450;2023-09-07T11:52:12;7.38;;;3.45;;
80320;SDS011;69633;47.066;15.450;2023-09-07T11:54:37;4.43;;;3.03;;
80320;SDS011;69633;47.066;15.450;2023-09-07T11:57:04;6.65;;;3.20;;
80320;SDS011;69633;47.066;15.450;2023-09-07T11:59:31;6.22;;;3.13;;
80320;SDS011;69633;47.066;15.450;2023-09-07T12:01:58;6.10;;;3.20;;
80320;SDS011;69633;47.066;15.450;2023-09-07T12:04:25;5.93;;;3.55;;
80320;SDS011;69633;47.066;15.450;2023-09-07T12:06:51;5.38;;;2.97;;
80320;SDS011;69633;47.066;15.450;2023-09-07T12:09:18;5.45;;;3.20;;
80320;SDS011;69633;47.066;15.450;2023-09-07T12:11:44;5.95;;;3.55;;
80320;SDS011;69633;47.066;15.450;2023-09-07T12:14:11;5.07;;;3.53;;
80320;SDS011;69633;47.066;15.450;2023-09-07T12:16:37;5.22;;;3.40;;
80320;SDS011;69633;47.066;15.450;2023-09-07T12:19:04;9.15;;;3.33;;
80320;SDS011;69633;47.066;15.450;2023-09-07T12:21:30;6.70;;;3.80;;
80320;SDS011;69633;47.066;15.450;2023-09-07T12:23:57;5.57;;;3.20;;
80320;SDS011;69633;47.066;15.450;2023-09-07T12:26:24;5.07;;;3.10;;
80320;SDS011;69633;47.066;15.450;2023-09-07T12:28:51;4.70;;;3.13;;
80320;SDS011;69633;47.066;15.450;2023-09-07T12:31:17;5.97;;;3.33;;
80320;SDS011;69633;47.066;15.450;2023-09-07T12:33:42;5.13;;;3.10;;
80320;SDS011;69633;47.066;15.450;2023-09-07T12:36:09;5.85;;;3.25;;
80320;SDS011;69633;47.066;15.450;2023-09-07T12:38:38;5.47;;;3.38;;
80320;SDS011;69633;47.066;15.450;2023-09-07T12:41:04;6.07;;;3.00;;
80320;SDS011;69633;47.066;15.450;2023-09-07T12:43:31;4.72;;;3.28;;
80320;SDS011;69633;47.066;15.450;2023-09-07T12:45:58;6.30;;;3.67;;
80320;SDS011;69633;47.066;15.450;2023-09-07T12:48:25;5.78;;;3.30;;
80320;SDS011;69633;47.066;15.450;2023-09-07T12:50:52;6.40;;;3.15;;
80320;SDS011;69633;47.066;15.450;2023-09-07T12:53:19;7.22;;;3.83;;
80320;SDS011;69633;47.066;15.450;2023-09-07T12:55:46;5.60;;;3.80;;
80320;SDS011;69633;47.066;15.450;2023-09-07T12:58:12;5.95;;;3.50;;
80320;SDS011;69633;47.066;15.450;2023-09-07T13:00:39;4.80;;;3.58;;
80320;SDS011;69633;47.066;15.450;2023-09-07T13:03:06;6.35;;;3.38;;
80320;SDS011;69633;47.066;15.450;2023-09-07T13:05:34;13.10;;;3.80;;
80320;SDS011;69633;47.066;15.450;2023-09-07T13:08:02;6.50;;;3.25;;
80320;SDS011;69633;47.066;15.450;2023-09-07T13:10:29;5.60;;;4.00;;
80320;SDS011;69633;47.066;15.450;2023-09-07T13:12:56;4.50;;;3.67;;
80320;SDS011;69633;47.066;15.450;2023-09-07T13:15:23;4.88;;;3.80;;
80320;SDS011;69633;47.066;15.450;2023-09-07T13:17:49;6.75;;;4.03;;
80320;SDS011;69633;47.066;15.450;2023-09-07T13:20:16;8.95;;;3.60;;
80320;SDS011;69633;47.066;15.450;2023-09-07T13:22:42;6.15;;;3.47;;
80320;SDS011;69633;47.066;15.450;2023-09-07T13:25:08;6.53;;;3.72;;
80320;SDS011;69633;47.066;15.450;2023-09-07T13:27:35;5.47;;;3.70;;
80320;SDS011;69633;47.066;15.450;2023-09-07T13:30:04;5.50;;;3.50;;
80320;SDS011;69633;47.066;15.450;2023-09-07T13:32:32;8.07;;;3.97;;
80320;SDS011;69633;47.066;15.450;2023-09-07T13:34:59;7.75;;;3.40;;
80320;SDS011;69633;47.066;15.450;2023-09-07T13:37:26;5.20;;;3.75;;
80320;SDS011;69633;47.066;15.450;2023-09-07T13:39:54;7.53;;;3.63;;
80320;SDS011;69633;47.066;15.450;2023-09-07T13:42:21;7.18;;;3.97;;
80320;SDS011;69633;47.066;15.450;2023-09-07T13:44:48;6.10;;;3.85;;
80320;SDS011;69633;47.066;15.450;2023-09-07T13:47:15;4.78;;;3.70;;
80320;SDS011;69633;47.066;15.450;2023-09-07T13:49:42;5.70;;;3.72;;
80320;SDS011;69633;47.066;15.450;2023-09-07T13:52:09;5.90;;;3.75;;
80320;SDS011;69633;47.066;15.450;2023-09-07T13:54:36;6.00;;;3.67;;
80320;SDS011;69633;47.066;15.450;2023-09-07T13:57:02;12.75;;;4.60;;
80320;SDS011;69633;47.066;15.450;2023-09-07T13:59:29;11.57;;;3.83;;
80320;SDS011;69633;47.066;15.450;2023-09-07T14:01:59;5.70;;;3.72;;
80320;SDS011;69633;47.066;15.450;2023-09-07T14:04:26;6.25;;;3.65;;
80320;SDS011;69633;47.066;15.450;2023-09-07T14:06:54;5.20;;;3.42;;
80320;SDS011;69633;47.066;15.450;2023-09-07T14:09:21;4.95;;;3.40;;
80320;SDS011;69633;47.066;15.450;2023-09-07T14:11:49;4.72;;;3.42;;
80320;SDS011;69633;47.066;15.450;2023-09-07T14:14:16;5.13;;;3.60;;
80320;SDS011;69633;47.066;15.450;2023-09-07T14:16:43;6.38;;;3.78;;
80320;SDS011;69633;47.066;15.450;2023-09-07T14:19:10;5.60;;;3.55;;
80320;SDS011;69633;47.066;15.450;2023-09-07T14:21:37;5.15;;;3.42;;
80320;SDS011;69633;47.066;15.450;2023-09-07T14:24:04;6.13;;;3.42;;
80320;SDS011;69633;47.066;15.450;2023-09-07T14:26:31;5.10;;;3.58;;
80320;SDS011;69633;47.066;15.450;2023-09-07T14:28:58;5.22;;;3.35;;
80320;SDS011;69633;47.066;15.450;2023-09-07T14:31:24;5.75;;;3.70;;
80320;SDS011;69633;47.066;15.450;2023-09-07T14:33:53;4.55;;;3.13;;
80320;SDS011;69633;47.066;15.450;2023-09-07T14:36:19;6.72;;;2.90;;
80320;SDS011;69633;47.066;15.450;2023-09-07T14:38:45;5.95;;;3.50;;
80320;SDS011;69633;47.066;15.450;2023-09-07T14:41:11;9.07;;;3.60;;
80320;SDS011;69633;47.066;15.450;2023-09-07T14:43:45;6.22;;;3.10;;